Time;durP1;ratioP1;P1;durP2;ratioP2;P2;SDS_P1;SDS_P2;PMS_P1;PMS_P2;Temp;Humidity;BMP_temperature;BMP_pressure;BME280_temperature;BME280_humidity;BME280_pressure;Samples;Min_cycle;Max_cycle;Signal;HPM_P1;HPM_P2
2022/06/02 00:03:02;;;;;;;6.10;4.30;;;;;;;7.92;100.00;101018.23;107901;1279;61539;-86
2022/06/02 00:06:20;;;;;;;6.40;4.30;;;;;;;7.91;100.00;101018.23;107927;1279;74953;-86
2022/06/02 00:08:55;;;;;;;6.40;4.70;;;;;;;7.89;100.00;101018.63;107725;1281;71370;-86
2022/06/02 00:11:29;;;;;;;;;;;;;;;7.87;100.00;101026.40;107902;1279;72272;-84
2022/06/02 00:14:19;;;;;;;5.10;4.10;;;;;;;7.82;100.00;101026.55;107869;1280;60709;-84
2022/06/02 00:17:03;;;;;;;5.00;3.60;;;;;;;7.83;100.00;101035.61;107742;1281;61105;-85
2022/06/02 00:20:32;;;;;;;;;;;;;;;;;;;;;
2022/06/02 00:23:31;;;;;;;5.60;4.40;;;;;;;7.80;100.00;101037.65;107124;1287;71382;-86
2022/06/02 00:26:39;;;;;;;;;;;;;;;;;;;;;
2022/06/02 00:29:18;;;;;;;8.50;5.90;;;;;;;7.75;100.00;101046.51;107864;1280;61837;-85
2022/06/02 00:32:00;;;;;;;5.70;4.20;;;;;;;7.74;100.00;101052.74;107888;1281;62750;-84
2022/06/02 00:35:30;;;;;;;6.40;4.60;;;;;;;7.73;100.00;101056.20;107670;1281;74924;-86
2022/06/02 00:38:25;;;;;;;5.90;3.90;;;;;;;7.71;100.00;101054.63;107885;1279;70641;-85
2022/06/02 00:40:53;;;;;;;5.80;4.00;;;;;;;7.70;100.00;101062.60;107860;1279;75460;-85
2022/06/02 00:43:45;;;;;;;8.90;5.80;;;;;;;7.69;100.00;101066.79;107819;1280;63070;-85
2022/06/02 00:46:41;;;;;;;6.00;4.90;;;;;;;7.68;100.00;101073.77;107875;1281;62435;-84
2022/06/02 00:50:00;;;;;;;6.40;4.50;;;;;;;7.68;100.00;101076.21;107811;1281;76137;-85
2022/06/02 00:52:50;;;;;;;8.80;5.30;;;;;;;7.67;100.00;101079.86;107685;1281;71347;-84
2022/06/02 00:59:06;;;;;;;6.70;5.10;;;;;;;7.65;100.00;101086.23;107691;1281;60577;-84
2022/06/02 01:01:45;;;;;;;6.10;3.90;;;;;;;7.63;100.00;101086.88;107863;1281;60866;-85
2022/06/02 01:04:16;;;;;;;6.60;4.50;;;;;;;7.62;100.00;101089.84;107839;1280;74074;-83
2022/06/02 01:06:53;;;;;;;9.00;4.90;;;;;;;7.60;100.00;101091.92;107791;1281;71072;-84
2022/06/02 01:09:46;;;;;;;4.80;3.50;;;;;;;7.57;100.00;101096.11;107897;1281;72862;-83
2022/06/02 01:12:44;;;;;;;7.80;4.70;;;;;;;7.54;100.00;101099.70;107855;1281;61991;-84
2022/06/02 01:15:28;;;;;;;7.30;5.50;;;;;;;7.51;100.00;101102.33;107872;1281;61601;-83
2022/06/02 01:18:19;;;;;;;7.40;5.60;;;;;;;7.47;100.00;101101.45;108050;1280;75197;-83
2022/06/02 01:21:29;;;;;;;;;;;;;;;;;;;;;
2022/06/02 01:24:49;;;;;;;5.90;4.40;;;;;;;7.41;100.00;101102.20;107893;1279;73767;-84
2022/06/02 01:27:28;;;;;;;11.20;5.70;;;;;;;7.39;100.00;101101.90;107853;1281;61963;-84
2022/06/02 01:30:22;;;;;;;7.90;5.60;;;;;;;7.37;100.00;101102.05;107842;1281;60506;-84
2022/06/02 01:33:54;;;;;;;7.80;5.30;;;;;;;7.34;100.00;101102.52;107881;1281;76263;-85
2022/06/02 01:36:24;;;;;;;5.90;4.30;;;;;;;7.30;100.00;101103.43;107890;1280;71598;-84
2022/06/02 01:39:20;;;;;;;10.60;6.50;;;;;;;7.29;100.00;101108.63;107864;1281;73870;-84
2022/06/02 01:42:11;;;;;;;6.90;5.10;;;;;;;7.26;100.00;101111.67;107869;1281;62713;-84
2022/06/02 01:44:56;;;;;;;7.40;5.50;;;;;;;7.24;100.00;101118.19;107900;1279;62833;-84
2022/06/02 01:47:35;;;;;;;7.50;5.80;;;;;;;7.22;100.00;101116.77;107871;1281;74893;-85
2022/06/02 01:50:23;;;;;;;8.90;5.90;;;;;;;7.21;100.00;101116.02;107829;1281;71490;-85
2022/06/02 01:53:59;;;;;;;;;;;;;;;;;;;;;
2022/06/02 01:57:10;;;;;;;16.80;7.90;;;;;;;7.17;100.00;101119.38;107457;1281;61165;-84
2022/06/02 02:00:00;;;;;;;8.70;5.20;;;;;;;7.14;100.00;101120.55;107879;1281;59914;-83
2022/06/02 02:02:42;;;;;;;11.50;8.20;;;;;;;7.12;100.00;101121.98;107866;1281;75774;-84
2022/06/02 02:05:27;;;;;;;12.60;7.40;;;;;;;7.10;100.00;101127.28;107707;1281;72132;-83
2022/06/02 02:08:11;;;;;;;9.10;6.20;;;;;;;7.08;100.00;101129.91;107894;1281;74251;-83
2022/06/02 02:11:00;;;;;;;14.00;8.40;;;;;;;7.05;100.00;101132.98;107836;1280;61480;-84
2022/06/02 02:14:06;;;;;;;10.90;7.70;;;;;;;7.01;100.00;101128.25;107904;1280;59605;-84
2022/06/02 02:17:40;;;;;;;12.20;8.10;;;;;;;7.00;100.00;101129.46;107394;1284;76950;-83
2022/06/02 02:20:24;;;;;;;11.30;7.70;;;;;;;6.98;100.00;101132.41;106484;1292;74076;-83
2022/06/02 02:23:30;;;;;;;14.00;8.90;;;;;;;6.97;100.00;101133.27;106827;1290;74846;-84
2022/06/02 02:26:30;;;;;;;13.40;8.60;;;;;;;6.95;100.00;101134.09;107000;1287;63573;-84
2022/06/02 02:29:11;;;;;;;10.50;8.10;;;;;;;6.93;100.00;101131.73;106872;1288;61551;-84
2022/06/02 02:32:32;;;;;;;11.60;9.00;;;;;;;6.93;100.00;101133.58;107418;1281;75373;-84
2022/06/02 02:36:21;;;;;;;14.70;10.20;;;;;;;6.91;100.00;101136.38;107789;1279;71893;-84
2022/06/02 02:39:54;;;;;;;13.60;9.10;;;;;;;6.91;100.00;101137.08;106841;1287;73176;-84
2022/06/02 02:42:31;;;;;;;10.50;7.70;;;;;;;6.90;100.00;101141.90;107242;1281;60760;-85
2022/06/02 02:46:07;;;;;;;;;;;;;;;;;;;;;
2022/06/02 02:48:55;;;;;;;11.90;7.90;;;;;;;6.87;100.00;101148.55;107716;1281;76886;-84
2022/06/02 02:51:28;;;;;;;14.00;8.00;;;;;;;6.85;100.00;101147.46;107641;1283;73245;-84
2022/06/02 02:54:28;;;;;;;11.70;7.50;;;;;;;6.84;100.00;101145.98;107832;1280;74690;-84
2022/06/02 02:57:26;;;;;;;11.50;8.40;;;;;;;6.83;100.00;101149.77;107884;1279;61409;-84
2022/06/02 03:00:28;;;;;;;15.40;9.90;;;;;;;6.83;100.00;101155.95;107836;1279;60643;-85
2022/06/02 03:03:30;;;;;;;13.60;9.80;;;;;;;6.84;100.00;101154.10;107865;1279;75271;-84
2022/06/02 03:06:42;;;;;;;16.80;10.20;;;;;;;6.83;100.00;101156.83;107650;1281;71332;-85
2022/06/02 03:09:55;;;;;;;;;;;;;;;;;;;;;
2022/06/02 03:12:48;;;;;;;14.20;8.20;;;;;;;6.85;100.00;101162.92;107744;1279;60452;-83
2022/06/02 03:15:45;;;;;;;14.00;10.10;;;;;;;6.87;100.00;101168.02;107899;1279;61655;-85
2022/06/02 03:19:31;;;;;;;18.20;10.90;;;;;;;6.87;100.00;101171.39;107818;1279;75214;-84
2022/06/02 03:22:40;;;;;;;;;;;;;;;;;;;;;
2022/06/02 03:25:16;;;;;;;17.50;11.60;;;;;;;6.86;100.00;101173.91;107899;1280;73370;-81
2022/06/02 03:27:54;;;;;;;16.70;11.20;;;;;;;6.85;100.00;101173.27;107810;1279;61325;-83
2022/06/02 03:30:25;;;;;;;16.80;11.10;;;;;;;6.86;100.00;101174.60;107898;1279;61806;-84
2022/06/02 03:33:24;;;;;;;;;;;;;;;;;;;;;
2022/06/02 03:36:39;;;;;;;17.10;11.40;;;;;;;6.88;100.00;101182.20;107870;1279;70619;-82
2022/06/02 03:39:17;;;;;;;18.30;11.30;;;;;;;6.90;100.00;101187.09;107437;1281;74254;-82
2022/06/02 03:42:07;;;;;;;18.10;11.50;;;;;;;6.90;100.00;101190.42;107690;1281;60275;-82
2022/06/02 03:45:03;;;;;;;16.40;10.70;;;;;;;6.91;100.00;101189.96;107908;1279;59671;-83
2022/06/02 03:47:45;;;;;;;;;;;;;;;6.92;100.00;101190.76;107858;1279;75405;-82
2022/06/02 03:50:59;;;;;;;;;;;;;;;;;;;;;
2022/06/02 03:54:37;;;;;;;;;;;;;;;;;;;;;
2022/06/02 03:57:28;;;;;;;17.50;9.60;;;;;;;7.00;100.00;101196.92;107733;1281;63704;-83
2022/06/02 04:00:09;;;;;;;12.20;7.90;;;;;;;7.03;100.00;101202.45;107851;1279;61034;-83
2022/06/02 04:03:06;;;;;;;14.30;8.00;;;;;;;7.08;100.00;101202.59;107886;1279;74876;-83
2022/06/02 04:06:04;;;;;;;13.00;9.50;;;;;;;7.11;100.00;101199.77;107868;1279;72594;-82
2022/06/02 04:09:24;;;;;;;;;;;;;;;;;;;;;
2022/06/02 04:15:30;;;;;;;11.50;7.50;;;;;;;7.25;100.00;101219.98;107928;1279;60643;-83
2022/06/02 04:18:10;;;;;;;12.00;8.30;;;;;;;7.30;100.00;101230.46;107943;1279;75088;-84
2022/06/02 04:21:15;;;;;;;12.20;8.30;;;;;;;7.33;100.00;101233.17;107896;1279;71574;-83
2022/06/02 04:24:29;;;;;;;16.90;11.00;;;;;;;7.41;100.00;101235.45;107515;1279;73516;-84
2022/06/02 04:27:04;;;;;;;17.20;10.80;;;;;;;7.47;100.00;101242.21;107865;1279;62965;-81
2022/06/02 04:30:28;;;;;;;;;;;;;;;;;;;;;
2022/06/02 04:33:48;;;;;;;;;;;;;;;;;;;;;
2022/06/02 04:39:30;;;;;;;14.80;9.00;;;;;;;7.78;100.00;101251.00;107936;1279;72270;-83
2022/06/02 04:42:57;;;;;;;23.90;14.10;;;;;;;7.89;100.00;101257.02;107762;1281;61420;-84
2022/06/02 04:45:55;;;;;;;12.90;9.20;;;;;;;8.00;100.00;101260.25;107830;1281;60649;-84
2022/06/02 04:48:46;;;;;;;11.40;6.90;;;;;;;8.10;100.00;101263.52;108008;1281;73703;-84
2022/06/02 04:52:22;;;;;;;;;;;;;;;;;;;;;
2022/06/02 04:55:10;;;;;;;19.90;11.30;;;;;;;8.30;100.00;101266.56;107571;1282;73526;-84
2022/06/02 04:57:54;;;;;;;19.20;11.00;;;;;;;8.41;100.00;101275.73;107509;1282;61530;-84
2022/06/02 05:00:39;;;;;;;17.60;11.90;;;;;;;8.52;100.00;101275.45;107647;1282;60819;-83
2022/06/02 05:03:12;;;;;;;17.40;11.70;;;;;;;8.63;100.00;101275.49;107507;1282;76164;-84
2022/06/02 05:05:53;;;;;;;18.70;12.80;;;;;;;8.69;100.00;101273.77;107553;1281;70498;-85
2022/06/02 05:08:41;;;;;;;15.40;10.60;;;;;;;8.86;100.00;101279.73;107689;1282;72946;-85
2022/06/02 05:11:45;;;;;;;16.70;11.70;;;;;;;8.99;100.00;101282.15;107895;1281;63468;-82
2022/06/02 05:14:58;;;;;;;18.70;13.20;;;;;;;9.17;100.00;101286.40;107844;1282;59540;-85
2022/06/02 05:18:08;;;;;;;17.30;11.10;;;;;;;9.34;100.00;101285.20;107678;1284;75026;-82
2022/06/02 05:21:01;;;;;;;16.80;12.10;;;;;;;9.47;100.00;101290.73;108007;1282;72123;-82
2022/06/02 05:24:03;;;;;;;13.80;8.60;;;;;;;9.57;100.00;101292.48;107557;1282;75329;-84
2022/06/02 05:27:12;;;;;;;10.30;7.10;;;;;;;9.68;100.00;101294.56;107527;1282;62690;-85
2022/06/02 05:29:51;;;;;;;14.80;10.30;;;;;;;9.80;100.00;101302.25;107485;1283;60740;-84
2022/06/02 05:32:37;;;;;;;16.40;11.30;;;;;;;9.87;100.00;101306.10;107249;1284;75128;-82
2022/06/02 05:35:29;;;;;;;13.70;9.40;;;;;;;9.97;100.00;101310.17;107592;1282;71367;-82
2022/06/02 05:38:08;;;;;;;14.70;10.40;;;;;;;10.04;100.00;101309.15;107591;1281;74020;-82
2022/06/02 05:40:53;;;;;;;16.60;11.20;;;;;;;10.08;100.00;101311.57;107834;1281;62122;-83
2022/06/02 05:43:33;;;;;;;;;;;;;;;10.17;100.00;101319.80;107710;1282;60586;-83
2022/06/02 05:47:17;;;;;;;21.30;13.40;;;;;;;10.28;100.00;101327.09;107968;1281;74694;-83
2022/06/02 05:49:53;;;;;;;19.00;13.20;;;;;;;10.37;100.00;101324.55;107750;1282;70348;-83
2022/06/02 05:53:17;;;;;;;18.40;12.70;;;;;;;10.52;100.00;101324.22;107596;1282;73112;-82
2022/06/02 05:55:57;;;;;;;16.70;11.60;;;;;;;10.70;100.00;101333.55;107801;1282;63425;-83
2022/06/02 05:59:07;;;;;;;20.30;14.00;;;;;;;10.83;99.69;101337.08;107819;1282;62724;-83
2022/06/02 06:02:09;;;;;;;29.80;18.00;;;;;;;10.97;97.88;101341.31;107494;1282;75457;-83
2022/06/02 06:05:32;;;;;;;15.20;9.90;;;;;;;11.01;96.85;101345.46;107361;1283;71458;-83
2022/06/02 06:08:39;;;;;;;17.30;12.10;;;;;;;11.04;96.78;101346.40;107032;1287;73148;-83
2022/06/02 06:12:05;;;;;;;;;;;;;;;;;;;;;
2022/06/02 06:14:55;;;;;;;25.50;15.70;;;;;;;11.31;96.33;101349.44;106880;1287;60335;-85
2022/06/02 06:17:34;;;;;;;28.50;17.70;;;;;;;11.54;94.90;101357.81;106811;1289;75313;-84
2022/06/02 06:20:08;;;;;;;19.80;11.70;;;;;;;11.72;93.18;101360.94;107145;1287;71405;-84
2022/06/02 06:22:49;;;;;;;15.60;11.10;;;;;;;11.85;92.47;101359.78;107396;1283;72497;-84
2022/06/02 06:25:21;;;;;;;14.50;10.50;;;;;;;11.98;91.57;101359.90;107598;1282;63435;-84
2022/06/02 06:28:12;;;;;;;15.80;10.10;;;;;;;12.05;90.76;101366.84;107593;1282;60944;-84
2022/06/02 06:30:48;;;;;;;14.80;10.10;;;;;;;12.12;90.45;101368.28;107852;1281;75010;-84
2022/06/02 06:33:40;;;;;;;12.90;9.30;;;;;;;12.21;89.60;101370.47;107705;1282;71442;-84
2022/06/02 06:36:57;;;;;;;15.50;10.50;;;;;;;12.29;89.09;101368.92;107668;1282;74091;-82
2022/06/02 06:40:00;;;;;;;13.00;9.80;;;;;;;12.43;87.45;101368.10;107036;1288;61762;-82
2022/06/02 06:43:07;;;;;;;17.40;10.70;;;;;;;12.61;86.75;101362.35;107634;1284;60709;-82
2022/06/02 06:45:47;;;;;;;13.60;9.50;;;;;;;12.85;84.11;101366.77;107601;1282;77926;-82
2022/06/02 06:48:23;;;;;;;13.30;9.20;;;;;;;12.93;82.72;101366.71;107540;1284;71518;-81
2022/06/02 06:51:26;;;;;;;10.00;6.80;;;;;;;12.95;82.86;101362.27;107590;1281;74036;-82
2022/06/02 06:54:23;;;;;;;11.30;7.70;;;;;;;12.91;81.23;101366.69;107672;1282;62094;-82
2022/06/02 06:57:23;;;;;;;15.70;10.90;;;;;;;13.02;81.63;101365.00;107858;1282;61636;-83
2022/06/02 07:00:01;;;;;;;8.90;7.20;;;;;;;13.17;79.77;101368.65;107818;1282;75096;-83
2022/06/02 07:03:11;;;;;;;7.70;5.70;;;;;;;13.33;77.92;101368.98;107549;1282;71555;-84
2022/06/02 07:05:48;;;;;;;8.50;6.70;;;;;;;13.37;75.92;101372.09;107108;1286;73458;-84
2022/06/02 07:08:43;;;;;;;7.90;5.50;;;;;;;13.43;76.11;101373.71;107516;1282;62344;-83
2022/06/02 07:14:55;;;;;;;6.70;4.50;;;;;;;13.47;74.55;101379.13;107429;1283;76381;-83
2022/06/02 07:17:36;;;;;;;9.00;7.20;;;;;;;13.58;73.24;101372.20;107874;1282;72788;-82
2022/06/02 07:20:46;;;;;;;8.20;6.20;;;;;;;13.58;73.00;101372.67;107853;1282;74716;-83
2022/06/02 07:24:03;;;;;;;;;;;;;;;;;;;;;
2022/06/02 07:27:06;;;;;;;6.40;4.20;;;;;;;13.57;71.87;101382.45;107580;1283;61474;-82
2022/06/02 07:29:57;;;;;;;7.20;3.80;;;;;;;13.69;70.83;101380.88;107856;1281;74720;-81
2022/06/02 07:33:08;;;;;;;6.40;3.40;;;;;;;13.88;70.78;101378.83;107690;1282;72526;-84
2022/06/02 07:36:20;;;;;;;4.90;3.10;;;;;;;13.93;68.62;101386.03;107881;1281;72885;-83
2022/06/02 07:38:57;;;;;;;11.20;7.40;;;;;;;14.10;68.50;101384.81;107901;1281;62303;-83
2022/06/02 07:41:39;;;;;;;4.60;3.30;;;;;;;14.19;67.53;101383.11;107679;1282;60585;-83
2022/06/02 07:44:14;;;;;;;5.70;2.60;;;;;;;14.15;66.92;101380.77;107887;1281;74991;-83
2022/06/02 07:47:25;;;;;;;4.80;3.00;;;;;;;14.02;67.70;101382.64;107621;1282;71257;-83
2022/06/02 07:50:12;;;;;;;4.20;2.70;;;;;;;13.88;68.23;101381.27;107086;1287;74120;-82
2022/06/02 07:52:59;;;;;;;5.00;3.80;;;;;;;14.01;67.63;101384.92;106877;1288;63495;-83
2022/06/02 07:55:39;;;;;;;4.20;2.90;;;;;;;14.33;67.11;101382.88;107445;1281;61300;-82
2022/06/02 07:58:21;;;;;;;4.70;3.40;;;;;;;14.60;67.32;101379.70;107935;1280;75133;-82
2022/06/02 08:01:05;;;;;;;4.70;3.20;;;;;;;14.77;66.52;101382.85;107907;1281;72619;-82
2022/06/02 08:03:48;;;;;;;3.50;2.50;;;;;;;14.87;62.95;101384.45;107870;1282;76088;-83
2022/06/02 08:06:43;;;;;;;3.10;2.30;;;;;;;14.81;60.79;101390.21;107831;1283;62117;-83
2022/06/02 08:09:34;;;;;;;4.60;2.90;;;;;;;14.91;61.65;101385.21;107681;1281;60576;-83
2022/06/02 08:12:40;;;;;;;4.60;2.80;;;;;;;14.96;61.12;101385.39;107890;1282;74920;-83
2022/06/02 08:15:53;;;;;;;6.20;3.00;;;;;;;15.15;62.45;101383.92;107656;1282;72234;-82
2022/06/02 08:18:55;;;;;;;6.10;3.70;;;;;;;15.24;61.17;101385.30;107778;1281;72765;-82
2022/06/02 08:21:29;;;;;;;6.10;2.90;;;;;;;15.32;60.76;101395.05;107594;1282;63049;-81
2022/06/02 08:24:27;;;;;;;5.60;2.80;;;;;;;15.22;61.58;101389.88;107544;1282;60566;-82
2022/06/02 08:27:03;;;;;;;5.50;2.50;;;;;;;15.13;59.75;101393.95;107670;1282;72737;-83
2022/06/02 08:29:55;;;;;;;4.40;2.50;;;;;;;15.18;59.43;101392.88;107610;1282;71459;-83
2022/06/02 08:32:41;;;;;;;5.30;3.00;;;;;;;15.42;58.98;101400.59;107573;1282;74094;-83
2022/06/02 08:35:54;;;;;;;3.60;2.20;;;;;;;15.60;57.29;101399.45;107386;1283;61125;-82
2022/06/02 08:38:43;;;;;;;3.50;2.20;;;;;;;15.87;59.16;101406.27;107572;1283;60318;-82
2022/06/02 08:41:47;;;;;;;3.20;1.90;;;;;;;15.95;57.31;101405.80;107444;1283;75953;-81
2022/06/02 08:44:44;;;;;;;3.60;2.10;;;;;;;15.68;53.95;101405.78;107842;1281;71223;-82
2022/06/02 08:47:31;;;;;;;5.00;2.60;;;;;;;15.69;54.91;101409.35;107582;1283;72916;-82
2022/06/02 08:50:16;;;;;;;5.40;3.40;;;;;;;15.88;55.14;101407.43;107818;1281;62469;-82
2022/06/02 08:53:09;;;;;;;5.10;2.70;;;;;;;16.13;55.17;101408.02;107550;1281;59826;-83
2022/06/02 08:55:41;;;;;;;4.50;2.90;;;;;;;16.29;54.92;101408.09;107843;1282;74434;-83
2022/06/02 08:59:13;;;;;;;2.30;1.50;;;;;;;16.20;54.21;101409.80;107858;1281;72736;-82
2022/06/02 09:01:57;;;;;;;3.20;1.70;;;;;;;15.92;54.15;101414.88;107187;1286;73438;-82
2022/06/02 09:05:05;;;;;;;3.10;2.30;;;;;;;15.79;55.52;101416.70;107279;1285;60810;-81
2022/06/02 09:07:57;;;;;;;4.20;2.00;;;;;;;15.99;55.50;101415.73;107857;1282;60002;-81
2022/06/02 09:10:51;;;;;;;2.50;1.70;;;;;;;16.15;54.07;101421.98;107550;1283;76045;-81
2022/06/02 09:13:55;;;;;;;2.80;1.60;;;;;;;16.06;51.76;101430.98;107840;1281;69194;-80
2022/06/02 09:16:46;;;;;;;4.30;2.20;;;;;;;15.95;51.76;101430.39;107680;1281;73351;-82
2022/06/02 09:20:06;;;;;;;5.00;2.20;;;;;;;15.95;52.59;101427.55;107698;1282;61487;-82
2022/06/02 09:22:51;;;;;;;3.00;1.80;;;;;;;16.10;52.63;101431.63;107216;1283;60576;-82
2022/06/02 09:26:00;;;;;;;3.20;1.60;;;;;;;16.29;52.82;101436.64;107543;1282;76399;-81
2022/06/02 09:28:26;;;;;;;4.40;2.50;;;;;;;16.42;51.93;101432.54;107564;1282;71300;-81
2022/06/02 09:31:17;;;;;;;4.60;2.10;;;;;;;16.52;51.38;101437.65;107907;1282;59213;-81
2022/06/02 09:34:03;;;;;;;3.20;1.90;;;;;;;16.27;51.85;101446.67;107291;1281;544454;-81
2022/06/02 09:36:38;;;;;;;3.20;1.90;;;;;;;16.02;52.29;101443.95;107901;1282;60654;-82
2022/06/02 09:39:23;;;;;;;3.90;2.10;;;;;;;16.07;53.80;101446.05;107815;1282;75951;-81
2022/06/02 09:42:05;;;;;;;;;;;;;;;16.34;53.41;101446.23;107907;1282;71607;-81
2022/06/02 09:45:04;;;;;;;3.40;2.00;;;;;;;16.36;53.13;101448.60;107564;1283;74154;-81
2022/06/02 09:47:58;;;;;;;2.40;1.70;;;;;;;16.23;53.07;101451.04;107550;1283;60890;-81
2022/06/02 09:51:12;;;;;;;2.90;1.60;;;;;;;16.32;53.25;101450.46;107577;1282;60656;-81
2022/06/02 09:53:49;;;;;;;2.20;1.40;;;;;;;16.27;52.54;101453.84;107445;1282;74860;-81
2022/06/02 09:56:37;;;;;;;5.30;2.70;;;;;;;16.38;51.27;101459.68;107547;1282;71481;-81
2022/06/02 09:59:29;;;;;;;2.50;1.50;;;;;;;16.71;50.69;101455.83;107819;1281;74326;-81
2022/06/02 10:02:20;;;;;;;3.10;1.60;;;;;;;16.81;50.59;101461.48;107845;1282;60347;-83
2022/06/02 10:05:13;;;;;;;2.70;1.50;;;;;;;16.94;50.33;101462.52;107770;1281;60635;-81
2022/06/02 10:07:48;;;;;;;2.50;1.50;;;;;;;17.17;49.11;101460.27;107644;1282;74959;-81
2022/06/02 10:10:42;;;;;;;5.00;1.90;;;;;;;17.21;50.34;101467.90;107586;1282;70078;-81
2022/06/02 10:13:14;;;;;;;3.40;1.70;;;;;;;17.36;49.88;101461.98;107506;1283;73040;-81
2022/06/02 10:15:42;;;;;;;3.70;1.30;;;;;;;17.39;49.42;101463.23;107717;1282;59392;-81
2022/06/02 10:18:34;;;;;;;2.30;1.40;;;;;;;17.29;49.24;101466.63;107606;1282;60336;-81
2022/06/02 10:21:16;;;;;;;3.40;1.70;;;;;;;17.13;48.27;101473.04;107744;1281;76371;-81
2022/06/02 10:24:16;;;;;;;2.30;1.00;;;;;;;16.98;49.33;101467.77;107582;1282;72744;-81
2022/06/02 10:27:22;;;;;;;2.00;1.50;;;;;;;17.09;48.24;101462.05;107622;1282;75563;-81
2022/06/02 10:30:19;;;;;;;2.30;0.90;;;;;;;17.31;48.49;101454.66;107549;1282;61692;-81
2022/06/02 10:33:26;;;;;;;5.60;1.30;;;;;;;17.31;46.90;101463.29;107840;1282;60384;-83
2022/06/02 10:36:24;;;;;;;3.50;1.20;;;;;;;17.21;47.54;101452.89;107373;1284;75044;-83
2022/06/02 10:39:19;;;;;;;2.70;1.40;;;;;;;17.19;48.01;101454.41;107835;1282;72001;-84
2022/06/02 10:42:16;;;;;;;2.00;1.00;;;;;;;17.14;48.81;101459.14;107838;1282;73506;-84
2022/06/02 10:45:08;;;;;;;3.80;1.70;;;;;;;16.91;50.07;101464.67;107671;1282;60930;-84
2022/06/02 10:47:57;;;;;;;2.00;1.30;;;;;;;16.75;50.64;101468.52;107760;1282;60362;-84
2022/06/02 10:50:45;;;;;;;2.40;1.30;;;;;;;16.72;50.31;101466.50;107806;1281;76135;-84
2022/06/02 10:53:59;;;;;;;2.00;1.10;;;;;;;17.01;49.70;101466.83;107566;1284;71573;-83
2022/06/02 10:56:54;;;;;;;3.30;1.20;;;;;;;17.43;48.56;101463.08;107542;1283;72936;-83
2022/06/02 10:59:44;;;;;;;2.40;1.30;;;;;;;17.67;46.21;101462.83;107752;1282;59538;-83
2022/06/02 11:02:34;;;;;;;3.60;1.70;;;;;;;17.84;45.97;101453.83;107566;1283;61984;-83
2022/06/02 11:05:52;;;;;;;4.00;2.60;;;;;;;17.85;46.27;101457.02;107584;1282;75372;-83
2022/06/02 11:08:58;;;;;;;3.60;1.00;;;;;;;17.95;47.17;101455.70;107347;1284;71063;-84
2022/06/02 11:12:03;;;;;;;2.40;1.40;;;;;;;18.08;46.10;101455.55;107917;1282;74033;-83
2022/06/02 11:14:48;;;;;;;1.80;1.10;;;;;;;18.30;45.85;101454.55;107574;1283;61845;-82
2022/06/02 11:17:43;;;;;;;2.40;0.80;;;;;;;18.68;44.94;101451.45;107801;1281;60335;-82
2022/06/02 11:20:38;;;;;;;2.90;1.10;;;;;;;18.68;44.19;101452.44;107842;1281;75141;-84
2022/06/02 11:23:45;;;;;;;2.80;1.40;;;;;;;18.51;44.23;101454.16;107593;1283;72569;-84
2022/06/02 11:26:31;;;;;;;2.80;1.00;;;;;;;18.28;45.30;101455.44;107530;1284;74039;-84
2022/06/02 11:29:23;;;;;;;4.30;2.60;;;;;;;18.32;45.30;101457.20;107560;1282;62096;-84
2022/06/02 11:32:04;;;;;;;7.40;3.60;;;;;;;18.61;44.55;101456.13;107771;1282;59172;-84
2022/06/02 11:34:54;;;;;;;3.40;0.70;;;;;;;19.00;44.07;101447.87;107557;1284;75094;-84
2022/06/02 11:37:45;;;;;;;2.90;1.00;;;;;;;19.13;43.81;101447.31;107808;1282;72573;-84
2022/06/02 11:40:57;;;;;;;4.70;3.50;;;;;;;18.96;42.60;101447.72;107822;1282;74571;-84
2022/06/02 11:44:06;;;;;;;2.70;1.70;;;;;;;18.95;43.92;101445.77;107505;1283;61457;-85
2022/06/02 11:47:01;;;;;;;3.30;2.20;;;;;;;18.87;44.24;101447.62;107802;1282;61609;-84
2022/06/02 11:49:33;;;;;;;;;;;;;;;18.84;44.02;101451.19;107499;1284;76299;-84
2022/06/02 11:52:10;;;;;;;3.00;1.10;;;;;;;18.89;42.87;101443.98;107831;1282;72583;-85
2022/06/02 11:54:51;;;;;;;4.20;2.40;;;;;;;19.38;43.42;101441.20;107673;1282;73197;-85
2022/06/02 11:57:39;;;;;;;4.00;2.00;;;;;;;19.85;43.65;101440.98;107807;1281;60610;-85
2022/06/02 12:00:28;;;;;;;10.20;7.60;;;;;;;19.82;43.06;101440.84;107634;1282;62175;-85
2022/06/02 12:03:15;;;;;;;4.20;2.20;;;;;;;19.86;43.89;101442.71;107794;1282;75710;-85
2022/06/02 12:06:09;;;;;;;2.60;1.20;;;;;;;19.81;42.86;101448.68;107839;1282;72337;-85
2022/06/02 12:09:06;;;;;;;5.80;3.10;;;;;;;19.94;41.96;101444.07;107856;1282;72955;-84
2022/06/02 12:11:47;;;;;;;3.60;1.40;;;;;;;19.76;42.38;101448.70;107866;1282;60494;-84
2022/06/02 12:14:55;;;;;;;3.10;1.60;;;;;;;19.40;42.97;101447.81;107745;1282;61818;-84
2022/06/02 12:18:06;;;;;;;19.40;11.70;;;;;;;19.07;44.00;101439.79;107859;1282;76153;-84
2022/06/02 12:20:46;;;;;;;4.70;1.50;;;;;;;19.12;45.18;101442.28;107884;1282;71805;-84
2022/06/02 12:23:29;;;;;;;4.40;2.00;;;;;;;19.24;44.60;101449.85;107649;1282;73135;-83
2022/06/02 12:26:14;;;;;;;5.00;1.70;;;;;;;19.44;44.57;101445.11;107709;1282;61329;-83
2022/06/02 12:28:50;;;;;;;2.30;1.20;;;;;;;20.00;43.14;101442.52;107806;1281;60328;-83
2022/06/02 12:31:35;;;;;;;3.10;1.50;;;;;;;20.54;41.76;101441.81;107595;1282;73631;-82
2022/06/02 12:34:10;;;;;;;2.80;1.30;;;;;;;20.72;40.68;101449.80;107657;1282;72405;-83
2022/06/02 12:37:02;;;;;;;4.50;1.00;;;;;;;20.76;40.34;101445.61;107835;1282;73297;-82
2022/06/02 12:39:54;;;;;;;1.70;0.80;;;;;;;20.80;40.08;101447.73;107698;1281;61398;-82
2022/06/02 12:42:49;;;;;;;2.10;0.90;;;;;;;20.98;39.70;101448.78;107537;1283;60655;-83
2022/06/02 12:45:46;;;;;;;1.40;0.90;;;;;;;20.86;39.33;101445.75;107553;1283;74919;-82
2022/06/02 12:48:39;;;;;;;1.70;0.70;;;;;;;20.61;40.63;101445.20;107834;1281;71362;-84
2022/06/02 12:51:33;;;;;;;3.40;1.70;;;;;;;20.18;41.66;101442.84;107823;1281;74306;-83
2022/06/02 12:54:33;;;;;;;2.50;1.20;;;;;;;19.86;42.42;101445.63;107658;1281;61699;-84
2022/06/02 12:57:36;;;;;;;3.70;1.40;;;;;;;19.66;43.02;101441.58;107593;1282;61702;-84
2022/06/02 13:00:18;;;;;;;2.90;1.20;;;;;;;19.61;42.86;101452.95;107326;1282;73889;-84
2022/06/02 13:03:12;;;;;;;3.10;1.50;;;;;;;19.43;42.83;101449.83;107628;1282;74319;-84
2022/06/02 13:06:14;;;;;;;6.50;3.30;;;;;;;19.44;43.36;101449.38;107566;1283;73127;-83
2022/06/02 13:09:10;;;;;;;2.80;1.40;;;;;;;19.50;44.00;101446.35;107812;1281;61848;-83
2022/06/02 13:11:40;;;;;;;3.90;1.80;;;;;;;19.63;44.60;101442.55;107580;1282;61504;-83
2022/06/02 13:14:33;;;;;;;7.40;5.20;;;;;;;19.78;44.00;101439.95;107634;1281;75140;-83
2022/06/02 13:17:21;;;;;;;1.80;1.10;;;;;;;19.71;43.54;101440.42;107846;1281;71550;-85
2022/06/02 13:20:26;;;;;;;5.60;2.50;;;;;;;19.48;43.40;101444.67;107715;1281;74193;-86
2022/06/02 13:23:09;;;;;;;3.80;2.90;;;;;;;19.39;44.10;101442.23;107653;1282;60870;-85
2022/06/02 13:25:49;;;;;;;2.00;1.10;;;;;;;19.55;43.65;101442.06;107749;1283;62205;-85
2022/06/02 13:28:36;;;;;;;2.60;1.10;;;;;;;20.23;42.54;101444.23;108454;1281;74910;-81
2022/06/02 13:31:21;;;;;;;2.30;1.30;;;;;;;20.57;42.63;101444.04;107942;1284;71538;-81
2022/06/02 13:34:15;;;;;;;1.50;0.90;;;;;;;22.12;40.93;101439.05;107919;1284;73956;-80
2022/06/02 13:36:59;;;;;;;2.30;1.10;;;;;;;24.40;35.81;101430.90;108044;1281;62183;-80
2022/06/02 13:39:58;;;;;;;3.30;1.50;;;;;;;26.34;33.26;101428.52;107703;1282;60299;-80
2022/06/02 13:43:04;;;;;;;1.40;0.90;;;;;;;28.35;29.92;101420.73;107738;1282;76146;-80
2022/06/02 13:46:17;;;;;;;2.10;0.80;;;;;;;28.53;28.40;101423.28;107681;1282;72327;-80
2022/06/02 13:49:06;;;;;;;1.90;0.80;;;;;;;27.25;28.89;101425.81;107822;1281;73367;-80
2022/06/02 13:51:32;;;;;;;3.20;0.70;;;;;;;27.52;29.38;101420.77;108234;1282;60786;-80
2022/06/02 13:57:42;;;;;;;1.60;0.70;;;;;;;30.74;25.96;101417.27;107641;1282;74688;-80
2022/06/02 14:00:18;;;;;;;1.40;0.50;;;;;;;32.25;24.19;101416.59;107682;1282;71405;-80